Sereno, Pennsylvania
Current Conditions -  °F | °C
As of 1:54 PM on Thursday 18 Dec 2014 (Local Time) from KIPT Reporting Station
Overcast Overcast  
Wind Chill: 28°   Ceiling: 3100
Heat Index: 36°   Visibility: 10mi
Dew Point: 24°   Wind: 10mph
Humidity: 62%   Direction: 270°W
Pressure: 30.03"   Gusts: NA
Location:  41.1401°N, 76.5245°W
Report Text: KIPT 181854Z 27009KT 10SM OVC031 02/M04 A3003 RMK AO2 SLP175 T00221044
Loading
Personal Weather Stations






























Interactive Weather Map New forecast layout! Learn more

10-Day Weather Forecast

Advertisements
Track Severe Weather on mobile